Terminal Aerodrome Forecast
Issued by NWS

Current Version | Previous Version | Graphics & Text | Print | Product List | Glossary On
Versions: 1 2 3 4 5 6 7 8 9 10 11 12 13 14 15 16 17 18 19 20 21 22 23 24 25 26 27 28 29 30 31 32 33 34 35 36 37 38 39 40 41
000
FTUS41 KRNK 262342
TAFLWB
TAF
KLWB 262342Z 2700/2724 26004KT P6SM BKN100 OVC250
     FM270900 27007KT P6SM VCTS SCT045CB OVC080 PROB30 2709/2712
      27015G28KT 4SM -TSRA BR BKN040CB
     FM271300 25008G16KT P6SM VCSH SCT045 BKN080 OVC150
      TEMPO 2713/2716 4SM -SHRA BR BKN040
     FM271600 26008G16KT P6SM VCTS BKN040CB OVC080=

USA.gov is the U.S. government's official web portal to all federal, state and local government web resources and services.